Marquez, Texas
Current Conditions -  °F | °C
As of 11:55 AM on Tuesday 21 Oct 2014 (Local Time) from KLXY Reporting Station
Clear Clear  
Wind Chill: 74°   Ceiling: Unl
Heat Index: 74°   Visibility: 10mi
Dew Point: 55°   Wind: 6mph
Humidity: 50%   Direction: 120°ESE
Pressure: 30.1"   Gusts: NA
Location:  31.24°N, 96.25°W
Report Text: KLXY 211655Z AUTO 12005KT 10SM CLR 24/13 A3010 RMK AO2 T02360127
Loading
Personal Weather Stations






























Interactive Weather Map
Tropical Storm Tracking
New forecast layout! Learn more

10-Day Weather Forecast

Advertisements
Track Severe Weather on mobile